createdAt,value
2022-11-06T00:00:14.290Z,99.99
2022-11-06T00:01:14.289Z,99.99
2022-11-06T00:02:20.264Z,99.99
2022-11-06T00:03:16.317Z,99.99
2022-11-06T00:04:14.269Z,99.99
2022-11-06T00:05:14.263Z,99.99
2022-11-06T00:06:14.285Z,99.99
2022-11-06T00:07:14.279Z,99.99
2022-11-06T00:08:14.671Z,99.99
2022-11-06T00:09:14.249Z,99.99
2022-11-06T00:10:14.198Z,99.99
2022-11-06T00:11:14.198Z,99.99
2022-11-06T00:12:14.219Z,99.99
2022-11-06T00:13:14.180Z,99.99
2022-11-06T00:14:14.166Z,99.99
2022-11-06T00:15:14.198Z,99.99
2022-11-06T00:16:14.197Z,99.99
2022-11-06T00:17:14.173Z,99.99
2022-11-06T00:18:14.477Z,99.99
2022-11-06T00:19:14.135Z,99.99
2022-11-06T00:20:14.116Z,99.99
2022-11-06T00:21:14.116Z,99.99
2022-11-06T00:22:14.138Z,99.99
2022-11-06T00:23:14.107Z,99.99
2022-11-06T00:24:14.087Z,99.99
2022-11-06T00:25:14.083Z,99.99
2022-11-06T00:26:14.106Z,99.99
2022-11-06T00:27:14.102Z,99.99
2022-11-06T00:28:14.404Z,99.99
2022-11-06T00:29:14.076Z,99.99
2022-11-06T00:30:14.046Z,99.99
2022-11-06T00:31:14.041Z,99.99
2022-11-06T00:32:14.056Z,99.99
2022-11-06T00:33:14.015Z,99.99
2022-11-06T00:34:14.064Z,99.99
2022-11-06T00:35:14.022Z,99.99
2022-11-06T00:36:13.988Z,99.99
2022-11-06T00:37:14.039Z,99.99
2022-11-06T00:38:14.255Z,99.99
2022-11-06T00:39:14.966Z,99.99
2022-11-06T00:40:13.967Z,99.99
2022-11-06T00:41:13.957Z,99.99
2022-11-06T00:42:13.974Z,99.99
2022-11-06T00:43:13.928Z,99.99
2022-11-06T00:44:13.924Z,99.99
2022-11-06T00:45:13.937Z,99.99
2022-11-06T00:46:13.935Z,99.99
2022-11-06T00:47:13.934Z,99.99
2022-11-06T00:48:14.304Z,99.99
2022-11-06T00:49:13.885Z,99.99
2022-11-06T00:50:13.888Z,99.99
2022-11-06T00:51:13.870Z,99.99
2022-11-06T00:52:13.862Z,99.99
2022-11-06T00:53:13.883Z,99.99
2022-11-06T00:54:13.877Z,99.99
2022-11-06T00:55:13.833Z,99.99
2022-11-06T00:56:13.858Z,99.99
2022-11-06T00:57:13.819Z,99.99
2022-11-06T00:58:14.299Z,99.99
2022-11-06T00:59:13.800Z,99.99
2022-11-06T01:00:13.796Z,99.99
2022-11-06T01:01:13.797Z,99.99
2022-11-06T01:02:13.859Z,99.99
2022-11-06T01:03:13.812Z,99.99
2022-11-06T01:04:13.763Z,99.99
2022-11-06T01:05:13.748Z,99.99
2022-11-06T01:06:13.731Z,99.99
2022-11-06T01:07:13.731Z,99.99
2022-11-06T01:08:14.116Z,99.99
2022-11-06T01:09:13.781Z,99.99
2022-11-06T01:10:13.728Z,99.99
2022-11-06T01:11:13.700Z,99.99
2022-11-06T01:12:14.627Z,99.99
2022-11-06T01:13:14.720Z,99.99
2022-11-06T01:14:13.669Z,99.99
2022-11-06T01:15:13.659Z,99.99
2022-11-06T01:16:13.657Z,99.99
2022-11-06T01:17:13.655Z,99.99
2022-11-06T01:18:13.929Z,99.99
2022-11-06T01:19:13.626Z,99.99
2022-11-06T01:20:13.616Z,99.99
2022-11-06T01:21:13.626Z,99.99
2022-11-06T01:22:13.603Z,99.99
2022-11-06T01:23:13.616Z,99.99
2022-11-06T01:24:13.650Z,99.99
2022-11-06T01:25:13.611Z,99.99
2022-11-06T01:26:13.569Z,99.99
2022-11-06T01:27:26.483Z,99.99
2022-11-06T01:28:15.744Z,99.99
2022-11-06T01:29:13.545Z,99.99
2022-11-06T01:30:13.539Z,99.99
2022-11-06T01:31:13.545Z,99.99
2022-11-06T01:32:13.523Z,99.99
2022-11-06T01:33:13.527Z,99.99
2022-11-06T01:34:14.499Z,99.99
2022-11-06T01:35:13.519Z,99.99
2022-11-06T01:36:13.479Z,99.99
2022-11-06T01:37:14.977Z,99.99
2022-11-06T01:38:14.691Z,99.99
2022-11-06T01:39:13.456Z,99.99
2022-11-06T01:40:13.482Z,99.99
2022-11-06T01:41:13.445Z,99.99
2022-11-06T01:42:13.479Z,99.99
2022-11-06T01:43:13.455Z,99.99
2022-11-06T01:44:13.416Z,99.99
2022-11-06T01:45:13.412Z,99.99
2022-11-06T01:46:13.400Z,99.99
2022-11-06T01:47:13.395Z,99.99
2022-11-06T01:48:13.639Z,99.99
2022-11-06T01:49:13.398Z,99.99
2022-11-06T01:50:13.413Z,99.99
2022-11-06T01:51:13.364Z,99.99
2022-11-06T01:52:13.348Z,99.99
2022-11-06T01:53:13.378Z,99.99
2022-11-06T01:54:13.344Z,99.99
2022-11-06T01:55:13.321Z,99.99
2022-11-06T01:56:13.315Z,99.99
2022-11-06T01:57:13.307Z,99.99
2022-11-06T01:58:13.553Z,99.99
2022-11-06T01:59:13.361Z,99.99
2022-11-06T02:00:13.297Z,99.99
2022-11-06T02:01:13.288Z,99.99
2022-11-06T02:02:13.314Z,99.99
2022-11-06T02:03:13.332Z,99.99
2022-11-06T02:04:13.260Z,99.99
2022-11-06T02:05:13.239Z,99.99
2022-11-06T02:06:13.242Z,99.99
2022-11-06T02:07:13.216Z,99.99
2022-11-06T02:08:13.486Z,99.99
2022-11-06T02:09:13.211Z,99.99
2022-11-06T02:10:13.201Z,99.99
2022-11-06T02:11:13.218Z,99.99
2022-11-06T02:12:13.196Z,99.99
2022-11-06T02:13:13.201Z,99.99
2022-11-06T02:14:13.188Z,99.99
2022-11-06T02:15:13.154Z,99.99
2022-11-06T02:16:13.161Z,99.99
2022-11-06T02:17:13.140Z,99.99
2022-11-06T02:18:13.393Z,99.99
2022-11-06T02:19:13.190Z,99.99
2022-11-06T02:20:13.130Z,99.99
2022-11-06T02:21:13.112Z,99.99
2022-11-06T02:22:13.095Z,99.99
2022-11-06T02:23:13.157Z,99.99
2022-11-06T02:24:13.100Z,99.99
2022-11-06T02:25:13.102Z,99.99
2022-11-06T02:26:13.090Z,99.99
2022-11-06T02:27:13.052Z,99.99
2022-11-06T02:28:13.401Z,99.99
2022-11-06T02:29:13.056Z,99.99
2022-11-06T02:30:13.033Z,99.99
2022-11-06T02:31:13.099Z,99.99
2022-11-06T02:32:13.052Z,99.99
2022-11-06T02:33:13.025Z,99.99
2022-11-06T02:34:14.077Z,99.99
2022-11-06T02:35:13.017Z,99.99
2022-11-06T02:36:12.988Z,99.99
2022-11-06T02:37:13.034Z,99.99
2022-11-06T02:38:13.199Z,99.99
2022-11-06T02:39:12.970Z,99.99
2022-11-06T02:40:12.974Z,99.99
2022-11-06T02:41:12.938Z,99.99
2022-11-06T02:42:13.029Z,99.99
2022-11-06T02:43:12.934Z,99.99
2022-11-06T02:44:12.908Z,99.99
2022-11-06T02:45:12.907Z,99.99
2022-11-06T02:46:12.894Z,99.99
2022-11-06T02:47:12.903Z,99.99
2022-11-06T02:48:13.238Z,99.99
2022-11-06T02:49:12.891Z,99.99
2022-11-06T02:50:12.872Z,99.99
2022-11-06T02:51:12.858Z,99.99
2022-11-06T02:52:12.876Z,99.99
2022-11-06T02:53:12.893Z,99.99
2022-11-06T02:54:12.832Z,99.99
2022-11-06T02:55:12.853Z,99.99
2022-11-06T02:56:12.812Z,99.99
2022-11-06T02:57:12.806Z,99.99
2022-11-06T02:58:13.090Z,99.99
2022-11-06T02:59:12.802Z,99.99
2022-11-06T03:00:12.786Z,99.99
2022-11-06T03:01:12.771Z,99.99
2022-11-06T03:02:12.916Z,99.99
2022-11-06T03:03:12.769Z,99.99
2022-11-06T03:04:12.760Z,99.99
2022-11-06T03:05:12.742Z,99.99
2022-11-06T03:06:12.732Z,99.99
2022-11-06T03:07:12.772Z,99.99
2022-11-06T03:08:12.953Z,99.99
2022-11-06T03:09:12.764Z,99.99
2022-11-06T03:10:12.702Z,99.99
2022-11-06T03:11:12.710Z,99.99
2022-11-06T03:12:12.828Z,99.99
2022-11-06T03:13:12.683Z,99.99
2022-11-06T03:14:12.659Z,99.99
2022-11-06T03:15:12.671Z,99.99
2022-11-06T03:16:12.672Z,99.99
2022-11-06T03:17:12.669Z,99.99
2022-11-06T03:18:12.928Z,99.99
2022-11-06T03:19:12.624Z,99.99
2022-11-06T03:20:12.625Z,99.99
2022-11-06T03:21:12.604Z,99.99
2022-11-06T03:22:12.627Z,99.99
2022-11-06T03:23:12.582Z,99.99
2022-11-06T03:24:12.582Z,99.99
2022-11-06T03:25:12.610Z,99.99
2022-11-06T03:26:12.575Z,99.99
2022-11-06T03:27:12.568Z,99.99
2022-11-06T03:28:12.921Z,99.99
2022-11-06T03:29:12.547Z,99.99
2022-11-06T03:30:16.332Z,99.99
2022-11-06T03:31:13.539Z,99.99
2022-11-06T03:32:12.519Z,99.99
2022-11-06T03:33:12.539Z,99.99
2022-11-06T03:34:12.513Z,99.99
2022-11-06T03:35:12.509Z,99.99
2022-11-06T03:36:12.478Z,99.99
2022-11-06T03:37:12.503Z,99.99
2022-11-06T03:38:12.813Z,99.99
2022-11-06T03:39:12.458Z,99.99
2022-11-06T03:40:12.451Z,99.99
2022-11-06T03:41:12.448Z,99.99
2022-11-06T03:42:12.467Z,99.99
2022-11-06T03:43:12.429Z,99.99
2022-11-06T03:44:12.423Z,99.99
2022-11-06T03:45:12.448Z,99.99
2022-11-06T03:46:12.395Z,99.99
2022-11-06T03:47:12.499Z,99.99
2022-11-06T03:48:12.709Z,99.99
2022-11-06T03:49:12.381Z,99.99
2022-11-06T03:50:12.390Z,99.99
2022-11-06T03:51:12.365Z,99.99
2022-11-06T03:52:12.393Z,99.99
2022-11-06T03:53:12.344Z,99.99
2022-11-06T03:54:12.356Z,99.99
2022-11-06T03:55:12.394Z,99.99
2022-11-06T03:56:12.310Z,99.99
2022-11-06T03:57:12.385Z,99.99
2022-11-06T03:58:12.580Z,99.99
2022-11-06T03:59:13.360Z,99.99
2022-11-06T04:00:12.282Z,99.99
2022-11-06T04:01:12.278Z,99.99
2022-11-06T04:02:12.456Z,99.87
2022-11-06T04:03:12.269Z,99.99
2022-11-06T04:04:12.247Z,99.87
2022-11-06T04:05:12.262Z,99.97
2022-11-06T04:06:12.230Z,99.87
2022-11-06T04:07:12.280Z,99.93
2022-11-06T04:08:12.554Z,99.93
2022-11-06T04:09:12.212Z,99.99
2022-11-06T04:10:12.209Z,99.99
2022-11-06T04:11:12.189Z,99.72
2022-11-06T04:12:12.217Z,99.93
2022-11-06T04:13:12.175Z,99.51
2022-11-06T04:14:12.208Z,99.41
2022-11-06T04:15:12.180Z,99.31
2022-11-06T04:16:12.157Z,99.41
2022-11-06T04:17:12.180Z,98.59
2022-11-06T04:18:12.402Z,99.31
2022-11-06T04:19:12.123Z,99.51
2022-11-06T04:20:12.114Z,99.41
2022-11-06T04:21:12.104Z,98.69
2022-11-06T04:22:12.121Z,99.57
2022-11-06T04:23:12.094Z,98.90
2022-11-06T04:24:12.081Z,98.69
2022-11-06T04:25:12.079Z,99.21
2022-11-06T04:26:12.062Z,99.47
2022-11-06T04:27:12.101Z,98.79
2022-11-06T04:28:12.428Z,99.21
2022-11-06T04:29:12.033Z,99.21
2022-11-06T04:30:12.027Z,98.90
2022-11-06T04:31:12.051Z,99.21
2022-11-06T04:32:12.004Z,99.00
2022-11-06T04:33:12.017Z,98.59
2022-11-06T04:34:11.994Z,98.90
2022-11-06T04:35:11.978Z,98.69
2022-11-06T04:36:12.029Z,99.10
2022-11-06T04:37:11.967Z,98.59
2022-11-06T04:38:12.290Z,99.00
2022-11-06T04:39:11.961Z,99.62
2022-11-06T04:40:11.938Z,99.00
2022-11-06T04:41:12.024Z,99.41
2022-11-06T04:42:11.923Z,99.21
2022-11-06T04:43:11.986Z,99.00
2022-11-06T04:44:11.908Z,99.31
2022-11-06T04:45:11.902Z,99.31
2022-11-06T04:46:11.927Z,99.00
2022-11-06T04:47:11.883Z,98.49
2022-11-06T04:48:12.311Z,98.59
2022-11-06T04:49:11.865Z,99.10
2022-11-06T04:50:11.870Z,99.21
2022-11-06T04:51:11.849Z,98.54
2022-11-06T04:52:11.880Z,99.31
2022-11-06T04:53:11.833Z,98.49
2022-11-06T04:54:11.826Z,99.00
2022-11-06T04:55:11.834Z,99.41
2022-11-06T04:56:11.798Z,99.41
2022-11-06T04:57:11.826Z,98.69
2022-11-06T04:58:12.071Z,98.59
2022-11-06T04:59:12.790Z,99.31
2022-11-06T05:00:11.787Z,99.41
2022-11-06T05:01:11.812Z,99.00
2022-11-06T05:02:11.840Z,99.00
2022-11-06T05:03:11.759Z,98.69
2022-11-06T05:04:11.760Z,98.69
2022-11-06T05:05:11.748Z,99.51
2022-11-06T05:06:11.727Z,98.79
2022-11-06T05:07:11.741Z,99.31
2022-11-06T05:08:12.149Z,98.69
2022-11-06T05:09:11.702Z,99.41
2022-11-06T05:10:11.712Z,98.49
2022-11-06T05:11:11.701Z,98.59
2022-11-06T05:12:11.712Z,98.69
2022-11-06T05:13:11.665Z,98.59
2022-11-06T05:14:11.654Z,98.59
2022-11-06T05:15:11.651Z,98.59
2022-11-06T05:16:11.654Z,98.69
2022-11-06T05:17:11.755Z,98.90
2022-11-06T05:18:12.099Z,99.21
2022-11-06T05:19:11.615Z,98.49
2022-11-06T05:20:11.602Z,98.59
2022-11-06T05:21:11.616Z,99.00
2022-11-06T05:22:11.838Z,98.69
2022-11-06T05:23:11.596Z,99.31
2022-11-06T05:24:11.575Z,99.62
2022-11-06T05:25:11.587Z,99.41
2022-11-06T05:26:11.557Z,99.21
2022-11-06T05:27:11.584Z,98.90
2022-11-06T05:28:11.908Z,98.69
2022-11-06T05:29:11.547Z,99.10
2022-11-06T05:30:11.519Z,98.44
2022-11-06T05:31:11.516Z,98.18
2022-11-06T05:32:11.536Z,98.38
2022-11-06T05:33:11.523Z,98.18
2022-11-06T05:34:11.536Z,97.82
2022-11-06T05:35:11.482Z,97.97
2022-11-06T05:36:11.464Z,98.28
2022-11-06T05:37:11.507Z,98.33
2022-11-06T05:38:11.862Z,97.97
2022-11-06T05:39:11.446Z,97.82
2022-11-06T05:40:11.451Z,98.03
2022-11-06T05:41:11.440Z,98.24
2022-11-06T05:42:11.464Z,98.33
2022-11-06T05:43:11.404Z,98.13
2022-11-06T05:44:11.427Z,98.24
2022-11-06T05:45:11.386Z,98.33
2022-11-06T05:46:29.749Z,98.03
2022-11-06T05:47:13.400Z,98.24
2022-11-06T05:48:11.715Z,98.18
2022-11-06T05:49:11.360Z,98.28
2022-11-06T05:50:11.350Z,98.13
2022-11-06T05:51:11.359Z,97.87
2022-11-06T05:52:11.364Z,98.38
2022-11-06T05:53:11.328Z,97.62
2022-11-06T05:54:11.312Z,97.72
2022-11-06T05:55:14.658Z,98.07
2022-11-06T05:56:12.300Z,98.28
2022-11-06T05:57:11.321Z,97.92
2022-11-06T05:58:11.555Z,97.62
2022-11-06T05:59:11.276Z,98.24
2022-11-06T06:00:11.276Z,97.66
2022-11-06T06:01:11.270Z,97.66
2022-11-06T06:02:11.372Z,97.72
2022-11-06T06:03:11.303Z,97.62
2022-11-06T06:04:12.227Z,97.62
2022-11-06T06:05:11.222Z,97.10
2022-11-06T06:06:11.216Z,97.31
2022-11-06T06:07:11.241Z,97.31
2022-11-06T06:08:11.506Z,96.69
2022-11-06T06:09:11.192Z,97.20
2022-11-06T06:10:11.184Z,97.31
2022-11-06T06:11:11.176Z,97.66
2022-11-06T06:12:11.163Z,97.87
2022-11-06T06:13:11.324Z,97.66
2022-11-06T06:14:11.167Z,97.87
2022-11-06T06:15:11.136Z,97.45
2022-11-06T06:16:11.153Z,97.77
2022-11-06T06:17:11.118Z,97.66
2022-11-06T06:18:11.650Z,97.66
2022-11-06T06:19:11.103Z,97.66
2022-11-06T06:20:11.098Z,97.77
2022-11-06T06:21:11.103Z,98.38
2022-11-06T06:22:11.090Z,97.77
2022-11-06T06:23:11.112Z,98.33
2022-11-06T06:24:11.116Z,98.07
2022-11-06T06:25:21.350Z,97.82
2022-11-06T06:26:13.040Z,97.87
2022-11-06T06:27:11.031Z,98.18
2022-11-06T06:28:11.340Z,98.44
2022-11-06T06:29:11.004Z,97.92
2022-11-06T06:30:12.005Z,97.82
2022-11-06T06:31:10.997Z,98.07
2022-11-06T06:32:10.999Z,97.92
2022-11-06T06:33:11.004Z,98.28
2022-11-06T06:34:10.981Z,98.59
2022-11-06T06:35:10.973Z,98.38
2022-11-06T06:36:10.957Z,98.18
2022-11-06T06:37:10.949Z,98.18
2022-11-06T06:38:11.378Z,98.38
2022-11-06T06:39:10.935Z,98.49
2022-11-06T06:40:10.925Z,98.69
2022-11-06T06:41:10.917Z,98.49
2022-11-06T06:42:10.902Z,98.69
2022-11-06T06:43:10.928Z,98.18
2022-11-06T06:44:10.895Z,97.97
2022-11-06T06:45:10.882Z,98.18
2022-11-06T06:46:10.875Z,98.38
2022-11-06T06:47:10.865Z,98.49
2022-11-06T06:48:11.324Z,98.28
2022-11-06T06:49:10.855Z,98.49
2022-11-06T06:50:10.835Z,98.07
2022-11-06T06:51:10.838Z,97.87
2022-11-06T06:52:10.828Z,98.07
2022-11-06T06:53:10.847Z,97.45
2022-11-06T06:54:10.830Z,98.28
2022-11-06T06:55:10.801Z,98.38
2022-11-06T06:56:10.801Z,97.62
2022-11-06T06:57:10.777Z,97.87
2022-11-06T06:58:16.568Z,97.66
2022-11-06T06:59:12.772Z,97.62
2022-11-06T07:00:10.760Z,98.03
2022-11-06T07:01:10.840Z,97.72
2022-11-06T07:02:10.811Z,97.41
2022-11-06T07:03:10.761Z,97.10
2022-11-06T07:04:10.720Z,97.00
2022-11-06T07:05:10.720Z,97.41
2022-11-06T07:06:10.726Z,97.41
2022-11-06T07:07:10.695Z,97.31
2022-11-06T07:08:11.057Z,97.27
2022-11-06T07:09:10.688Z,96.75
2022-11-06T07:10:10.684Z,97.16
2022-11-06T07:11:10.671Z,97.16
2022-11-06T07:12:10.662Z,95.83
2022-11-06T07:13:10.973Z,96.34
2022-11-06T07:14:10.641Z,95.98
2022-11-06T07:15:10.642Z,95.78
2022-11-06T07:16:10.618Z,95.83
2022-11-06T07:17:10.633Z,95.78
2022-11-06T07:18:10.903Z,96.30
2022-11-06T07:19:10.618Z,95.17
2022-11-06T07:20:10.600Z,95.53
2022-11-06T07:21:10.587Z,95.23
2022-11-06T07:22:10.581Z,95.02
2022-11-06T07:23:10.594Z,94.26
2022-11-06T07:24:10.562Z,94.05
2022-11-06T07:25:10.561Z,94.01
2022-11-06T07:26:10.544Z,93.39
2022-11-06T07:27:10.537Z,92.63
2022-11-06T07:28:10.572Z,91.77
2022-11-06T07:29:10.596Z,91.87
2022-11-06T07:30:10.512Z,91.63
2022-11-06T07:31:10.504Z,91.77
2022-11-06T07:32:10.498Z,90.66
2022-11-06T07:33:10.511Z,89.70
2022-11-06T07:34:10.483Z,88.98
2022-11-06T07:35:10.470Z,88.90
2022-11-06T07:36:10.465Z,87.08
2022-11-06T07:37:10.449Z,85.37
2022-11-06T07:38:10.697Z,83.45
2022-11-06T07:39:10.432Z,81.71
2022-11-06T07:40:10.432Z,79.80
2022-11-06T07:41:10.424Z,79.05
2022-11-06T07:42:10.403Z,77.70
2022-11-06T07:43:10.430Z,76.27
2022-11-06T07:44:42.922Z,74.77
2022-11-06T07:45:10.375Z,73.49
2022-11-06T07:46:10.418Z,72.41
2022-11-06T07:47:10.362Z,71.37
2022-11-06T07:48:10.394Z,70.32
2022-11-06T07:49:10.353Z,70.02
2022-11-06T07:50:10.341Z,69.92
2022-11-06T07:51:10.334Z,68.67
2022-11-06T07:52:10.327Z,67.66
2022-11-06T07:53:10.511Z,67.80
2022-11-06T07:54:10.308Z,67.72
2022-11-06T07:55:10.301Z,68.43
2022-11-06T07:56:10.322Z,67.60
2022-11-06T07:57:10.289Z,68.03
2022-11-06T07:58:10.393Z,67.86
2022-11-06T07:59:10.260Z,67.09
2022-11-06T08:00:10.261Z,66.99
2022-11-06T08:01:12.963Z,66.92
2022-11-06T08:02:12.408Z,66.78
2022-11-06T08:03:10.241Z,66.25
2022-11-06T08:04:10.247Z,66.15
2022-11-06T08:05:10.226Z,66.35
2022-11-06T08:06:10.210Z,66.58
2022-11-06T08:07:10.206Z,66.58
2022-11-06T08:08:10.318Z,65.92
2022-11-06T08:09:10.206Z,65.81
2022-11-06T08:10:10.168Z,65.92
2022-11-06T08:11:10.165Z,65.34
2022-11-06T08:12:10.158Z,65.31
2022-11-06T08:13:10.152Z,64.34
2022-11-06T08:14:10.157Z,65.88
2022-11-06T08:15:11.130Z,64.78
2022-11-06T08:16:10.123Z,64.58
2022-11-06T08:17:10.116Z,65.14
2022-11-06T08:18:11.499Z,65.37
2022-11-06T08:19:10.131Z,65.34
2022-11-06T08:20:10.089Z,65.21
2022-11-06T08:21:10.084Z,64.01
2022-11-06T08:22:10.066Z,63.78
2022-11-06T08:23:10.068Z,61.96
2022-11-06T08:24:10.089Z,63.30
2022-11-06T08:25:10.052Z,62.60
2022-11-06T08:26:10.044Z,62.37
2022-11-06T08:27:10.104Z,63.23
2022-11-06T08:28:10.179Z,63.40
2022-11-06T08:29:10.052Z,63.03
2022-11-06T08:30:10.007Z,62.37
2022-11-06T08:31:10.010Z,61.43
2022-11-06T08:32:10.003Z,61.79
2022-11-06T08:33:09.993Z,63.00
2022-11-06T08:34:10.027Z,61.99
2022-11-06T08:35:09.969Z,62.12
2022-11-06T08:36:09.981Z,62.22
2022-11-06T08:37:09.959Z,62.85
2022-11-06T08:38:09.948Z,63.06
2022-11-06T08:39:09.968Z,62.73
2022-11-06T08:40:09.930Z,63.16
2022-11-06T08:41:09.918Z,63.64
2022-11-06T08:42:09.927Z,62.22
2022-11-06T08:43:09.912Z,62.49
2022-11-06T08:44:09.928Z,62.90
2022-11-06T08:45:09.889Z,62.06
2022-11-06T08:46:09.954Z,62.40
2022-11-06T08:47:09.875Z,62.26
2022-11-06T08:48:09.873Z,61.36
2022-11-06T08:49:09.899Z,61.36
2022-11-06T08:50:09.855Z,61.66
2022-11-06T08:51:09.843Z,61.33
2022-11-06T08:52:09.838Z,61.10
2022-11-06T08:53:09.842Z,61.50
2022-11-06T08:54:09.877Z,59.66
2022-11-06T08:55:09.811Z,59.80
2022-11-06T08:56:09.804Z,59.08
2022-11-06T08:57:09.796Z,58.49
2022-11-06T08:58:09.805Z,58.06
2022-11-06T08:59:09.815Z,56.83
2022-11-06T09:00:09.769Z,56.81
2022-11-06T09:01:09.840Z,57.70
2022-11-06T09:02:09.862Z,58.07
2022-11-06T09:03:09.747Z,58.54
2022-11-06T09:04:09.774Z,58.20
2022-11-06T09:05:09.730Z,58.37
2022-11-06T09:06:09.720Z,58.22
2022-11-06T09:07:09.713Z,58.83
2022-11-06T09:08:09.711Z,58.83
2022-11-06T09:09:09.735Z,58.67
2022-11-06T09:10:09.692Z,58.33
2022-11-06T09:11:09.681Z,59.16
2022-11-06T09:12:09.687Z,60.29
2022-11-06T09:13:09.677Z,60.19
2022-11-06T09:14:09.656Z,58.83
2022-11-06T09:15:09.680Z,58.93
2022-11-06T09:16:15.343Z,58.90
2022-11-06T09:17:11.635Z,59.00
2022-11-06T09:18:09.623Z,58.14
2022-11-06T09:19:09.628Z,58.51
2022-11-06T09:20:09.642Z,57.21
2022-11-06T09:21:09.609Z,59.43
2022-11-06T09:22:09.594Z,60.47
2022-11-06T09:23:09.588Z,58.93
2022-11-06T09:24:09.572Z,59.66
2022-11-06T09:25:09.601Z,60.36
2022-11-06T09:26:09.567Z,60.57
2022-11-06T09:27:09.546Z,60.27
2022-11-06T09:28:10.552Z,59.66
2022-11-06T09:29:09.549Z,59.30
2022-11-06T09:30:09.574Z,58.83
2022-11-06T09:31:09.528Z,59.00
2022-11-06T09:32:09.520Z,59.20
2022-11-06T09:33:13.557Z,61.27
2022-11-06T09:34:10.497Z,60.13
2022-11-06T09:35:09.540Z,59.78
2022-11-06T09:36:09.492Z,59.53
2022-11-06T09:37:09.483Z,58.53
2022-11-06T09:38:09.471Z,58.90
2022-11-06T09:39:09.458Z,59.08
2022-11-06T09:40:09.451Z,57.90
2022-11-06T09:41:09.475Z,59.33
2022-11-06T09:42:09.438Z,58.73
2022-11-06T09:43:09.431Z,58.83
2022-11-06T09:44:09.420Z,59.13
2022-11-06T09:45:09.415Z,59.26
2022-11-06T09:46:09.437Z,58.20
2022-11-06T09:47:09.390Z,58.67
2022-11-06T09:48:09.383Z,57.42
2022-11-06T09:49:09.389Z,57.70
2022-11-06T09:50:09.379Z,58.29
2022-11-06T09:51:09.397Z,58.60
2022-11-06T09:52:09.364Z,58.17
2022-11-06T09:53:09.347Z,58.22
2022-11-06T09:54:09.359Z,57.39
2022-11-06T09:55:09.337Z,58.29
2022-11-06T09:56:09.347Z,57.24
2022-11-06T09:57:10.326Z,57.46
2022-11-06T09:58:09.310Z,57.41
2022-11-06T09:59:09.311Z,56.56
2022-11-06T10:00:09.294Z,56.02
2022-11-06T10:01:09.381Z,54.30
2022-11-06T10:02:09.404Z,54.90
2022-11-06T10:03:09.265Z,54.17
2022-11-06T10:04:09.263Z,54.67
2022-11-06T10:05:09.256Z,53.69
2022-11-06T10:06:09.299Z,53.19
2022-11-06T10:07:09.250Z,53.94
2022-11-06T10:08:09.228Z,54.50
2022-11-06T10:09:09.230Z,54.37
2022-11-06T10:10:09.219Z,54.64
2022-11-06T10:11:09.239Z,52.59
2022-11-06T10:12:09.203Z,53.72
2022-11-06T10:13:10.754Z,53.62
2022-11-06T10:14:09.178Z,53.74
2022-11-06T10:15:09.176Z,53.64
2022-11-06T10:16:09.211Z,53.92
2022-11-06T10:17:10.159Z,52.55
2022-11-06T10:18:09.158Z,52.32
2022-11-06T10:19:09.147Z,53.37
2022-11-06T10:20:09.133Z,53.24
2022-11-06T10:21:09.156Z,53.57
2022-11-06T10:22:09.111Z,53.32
2022-11-06T10:23:10.110Z,53.09
2022-11-06T10:24:09.102Z,52.22
2022-11-06T10:25:09.101Z,52.39
2022-11-06T10:26:09.125Z,52.80
2022-11-06T10:27:09.086Z,52.07
2022-11-06T10:28:09.072Z,52.49
2022-11-06T10:29:09.073Z,51.82
2022-11-06T10:30:09.060Z,51.02
2022-11-06T10:31:09.084Z,51.19
2022-11-06T10:32:09.052Z,52.75
2022-11-06T10:33:09.037Z,53.25
2022-11-06T10:34:09.063Z,51.99
2022-11-06T10:35:09.025Z,51.99
2022-11-06T10:36:09.158Z,52.52
2022-11-06T10:37:09.011Z,54.02
2022-11-06T10:38:08.996Z,51.74
2022-11-06T10:39:08.989Z,52.39
2022-11-06T10:40:08.978Z,52.42
2022-11-06T10:41:08.976Z,52.80
2022-11-06T10:42:08.994Z,52.49
2022-11-06T10:43:08.954Z,52.09
2022-11-06T10:44:08.952Z,51.99
2022-11-06T10:45:08.956Z,51.12
2022-11-06T10:46:08.960Z,52.82
2022-11-06T10:47:08.925Z,52.26
2022-11-06T10:48:08.918Z,52.04
2022-11-06T10:49:08.910Z,52.55
2022-11-06T10:50:08.903Z,53.42
2022-11-06T10:51:08.921Z,53.59
2022-11-06T10:52:08.882Z,53.59
2022-11-06T10:53:08.880Z,52.77
2022-11-06T10:54:08.868Z,52.62
2022-11-06T10:55:09.913Z,52.62
2022-11-06T10:56:11.134Z,51.39
2022-11-06T10:57:09.846Z,52.77
2022-11-06T10:58:08.845Z,52.22
2022-11-06T10:59:08.836Z,50.96
2022-11-06T11:00:08.826Z,51.46
2022-11-06T11:01:08.888Z,51.09
2022-11-06T11:02:08.924Z,50.89
2022-11-06T11:03:08.797Z,50.67
2022-11-06T11:04:08.792Z,49.29
2022-11-06T11:05:08.826Z,50.32
2022-11-06T11:06:08.776Z,51.37
2022-11-06T11:07:08.798Z,50.47
2022-11-06T11:08:08.762Z,49.77
2022-11-06T11:09:08.750Z,49.49
2022-11-06T11:10:08.771Z,49.29
2022-11-06T11:11:08.742Z,49.37
2022-11-06T11:12:08.759Z,48.90
2022-11-06T11:13:09.155Z,49.72
2022-11-06T11:14:09.707Z,48.60
2022-11-06T11:15:08.703Z,48.67
2022-11-06T11:16:08.701Z,48.54
2022-11-06T11:17:08.713Z,50.79
2022-11-06T11:18:08.682Z,51.01
2022-11-06T11:19:08.698Z,51.21
2022-11-06T11:20:08.672Z,51.32
2022-11-06T11:21:08.661Z,49.84
2022-11-06T11:22:08.684Z,48.74
2022-11-06T11:23:08.747Z,49.64
2022-11-06T11:24:08.630Z,49.74
2022-11-06T11:25:08.624Z,50.59
2022-11-06T11:26:08.609Z,50.67
2022-11-06T11:27:08.752Z,49.11
2022-11-06T11:28:08.596Z,48.47
2022-11-06T11:29:08.593Z,48.45
2022-11-06T11:30:08.584Z,47.48
2022-11-06T11:31:08.588Z,46.64
2022-11-06T11:32:08.604Z,46.30
2022-11-06T11:33:08.559Z,45.90
2022-11-06T11:34:08.556Z,45.14
2022-11-06T11:35:08.542Z,46.48
2022-11-06T11:36:08.539Z,49.69
2022-11-06T11:37:08.555Z,48.35
2022-11-06T11:38:08.517Z,47.00
2022-11-06T11:39:08.518Z,46.88
2022-11-06T11:40:13.266Z,46.86
2022-11-06T11:41:10.493Z,47.16
2022-11-06T11:42:08.514Z,46.76
2022-11-06T11:43:08.487Z,46.54
2022-11-06T11:44:08.477Z,47.06
2022-11-06T11:45:08.460Z,46.48
2022-11-06T11:46:08.467Z,46.98
2022-11-06T11:47:09.314Z,46.04
2022-11-06T11:48:09.442Z,46.16
2022-11-06T11:49:08.439Z,46.24
2022-11-06T11:50:08.426Z,45.94
2022-11-06T11:51:08.419Z,46.64
2022-11-06T11:52:08.426Z,46.26
2022-11-06T11:53:10.568Z,46.28
2022-11-06T11:54:09.396Z,46.68
2022-11-06T11:55:08.392Z,46.73
2022-11-06T11:56:08.386Z,46.46
2022-11-06T11:57:09.376Z,45.78
2022-11-06T11:58:08.401Z,46.08
2022-11-06T11:59:08.418Z,45.47
2022-11-06T12:00:08.349Z,46.28
2022-11-06T12:01:08.343Z,46.75
2022-11-06T12:02:08.554Z,49.19
2022-11-06T12:03:08.427Z,49.66
2022-11-06T12:04:08.318Z,49.82
2022-11-06T12:05:09.308Z,47.17
2022-11-06T12:06:08.319Z,47.95
2022-11-06T12:07:08.320Z,46.70
2022-11-06T12:08:08.286Z,47.83
2022-11-06T12:09:08.278Z,46.31
2022-11-06T12:10:08.265Z,46.68
2022-11-06T12:11:08.270Z,45.74
2022-11-06T12:12:08.290Z,45.04
2022-11-06T12:13:08.248Z,46.08
2022-11-06T12:14:08.241Z,46.88
2022-11-06T12:15:08.230Z,46.64
2022-11-06T12:16:08.225Z,45.26
2022-11-06T12:17:08.246Z,44.89
2022-11-06T12:18:08.209Z,47.81
2022-11-06T12:19:08.203Z,48.22
2022-11-06T12:20:08.189Z,46.62
2022-11-06T12:21:08.190Z,46.81
2022-11-06T12:22:08.203Z,47.52
2022-11-06T12:23:08.168Z,47.02
2022-11-06T12:24:08.161Z,46.81
2022-11-06T12:25:08.173Z,48.58
2022-11-06T12:26:08.146Z,47.78
2022-11-06T12:27:08.170Z,47.14
2022-11-06T12:28:08.123Z,47.31
2022-11-06T12:29:08.122Z,46.59
2022-11-06T12:30:08.109Z,48.07
2022-11-06T12:31:08.103Z,48.46
2022-11-06T12:32:08.092Z,49.19
2022-11-06T12:33:08.119Z,48.26
2022-11-06T12:34:11.980Z,48.36
2022-11-06T12:35:09.072Z,48.51
2022-11-06T12:36:08.078Z,49.11
2022-11-06T12:37:08.049Z,49.63
2022-11-06T12:38:08.088Z,49.66
2022-11-06T12:39:08.042Z,50.36
2022-11-06T12:40:08.035Z,50.59
2022-11-06T12:41:08.025Z,50.46
2022-11-06T12:42:08.018Z,50.89
2022-11-06T12:43:08.105Z,50.99
2022-11-06T12:44:07.988Z,51.26
2022-11-06T12:45:08.994Z,50.96
2022-11-06T12:46:07.999Z,50.31
2022-11-06T12:47:07.975Z,50.69
2022-11-06T12:48:07.994Z,50.13
2022-11-06T12:49:07.953Z,51.01
2022-11-06T12:50:07.956Z,51.54
2022-11-06T12:51:07.945Z,51.64
2022-11-06T12:52:07.932Z,52.34